createdAt,value
2018-09-04T00:00:59.484Z,15.00
2018-09-04T00:03:28.576Z,15.00
2018-09-04T00:06:03.964Z,14.90
2018-09-04T00:11:09.397Z,14.90
2018-09-04T00:13:38.788Z,14.90
2018-09-04T00:16:09.933Z,14.80
2018-09-04T00:18:40.526Z,14.90
2018-09-04T00:21:10.023Z,14.90
2018-09-04T00:23:39.374Z,14.90
2018-09-04T00:26:08.834Z,14.90
2018-09-04T00:28:41.926Z,14.90
2018-09-04T00:31:11.374Z,14.80
2018-09-04T00:33:40.788Z,14.80
2018-09-04T00:36:10.459Z,14.90
2018-09-04T00:38:48.593Z,14.90
2018-09-04T00:41:17.944Z,14.90
2018-09-04T00:43:47.249Z,14.90
2018-09-04T00:46:16.584Z,14.90
2018-09-04T00:48:53.720Z,14.90
2018-09-04T00:51:23.054Z,15.00
2018-09-04T00:53:52.413Z,15.00
2018-09-04T00:56:21.762Z,15.10
2018-09-04T00:58:52.127Z,15.10
2018-09-04T01:01:21.536Z,15.00
2018-09-04T01:03:50.949Z,15.00
2018-09-04T01:06:20.324Z,15.00
2018-09-04T01:08:55.378Z,15.10
2018-09-04T01:11:24.680Z,15.10
2018-09-04T01:13:53.995Z,15.00
2018-09-04T01:16:23.336Z,15.00
2018-09-04T01:19:11.642Z,15.00
2018-09-04T01:21:40.988Z,15.00
2018-09-04T01:24:11.059Z,15.00
2018-09-04T01:26:40.425Z,15.00
2018-09-04T01:29:17.000Z,15.10
2018-09-04T01:31:46.418Z,15.10
2018-09-04T01:34:15.737Z,15.10
2018-09-04T01:36:45.093Z,15.20
2018-09-04T01:39:24.493Z,15.20
2018-09-04T01:41:53.829Z,15.20
2018-09-04T01:44:23.174Z,15.20
2018-09-04T01:46:52.528Z,15.30
2018-09-04T01:49:24.114Z,15.30
2018-09-04T01:51:53.494Z,15.80
2018-09-04T01:54:22.776Z,15.30
2018-09-04T01:56:52.146Z,15.30
2018-09-04T01:59:23.545Z,15.40
2018-09-04T02:01:52.976Z,15.60
2018-09-04T02:04:22.329Z,15.40
2018-09-04T02:06:51.673Z,15.40
2018-09-04T02:09:24.837Z,15.40
2018-09-04T02:11:54.260Z,15.40
2018-09-04T02:14:23.613Z,15.50
2018-09-04T02:19:39.752Z,15.50
2018-09-04T02:22:09.181Z,15.50
2018-09-04T02:24:38.528Z,15.60
2018-09-04T02:27:08.184Z,15.60
2018-09-04T02:29:37.586Z,15.60
2018-09-04T02:32:07.073Z,15.60
2018-09-04T02:34:36.466Z,15.60
2018-09-04T02:37:05.817Z,15.50
2018-09-04T02:39:35.161Z,15.50
2018-09-04T02:42:04.589Z,15.50
2018-09-04T02:44:33.973Z,15.50
2018-09-04T02:47:03.398Z,15.60
2018-09-04T02:49:32.776Z,15.60
2018-09-04T02:52:02.178Z,15.60
2018-09-04T02:54:31.627Z,15.60
2018-09-04T02:57:01.009Z,15.60
2018-09-04T02:59:30.517Z,15.60
2018-09-04T03:01:59.841Z,15.70
2018-09-04T03:04:29.316Z,15.70
2018-09-04T03:06:58.773Z,15.70
2018-09-04T03:09:36.905Z,15.70
2018-09-04T03:12:06.382Z,15.70
2018-09-04T03:14:35.874Z,15.70
2018-09-04T03:17:05.286Z,15.70
2018-09-04T03:19:34.714Z,15.70
2018-09-04T03:22:04.187Z,15.70
2018-09-04T03:24:33.606Z,15.70
2018-09-04T03:27:02.948Z,15.70
2018-09-04T03:29:32.639Z,15.60
2018-09-04T03:32:02.052Z,15.60
2018-09-04T03:34:31.474Z,15.70
2018-09-04T03:37:00.898Z,15.70
2018-09-04T03:39:39.749Z,15.70
2018-09-04T03:42:09.157Z,15.70
2018-09-04T03:44:38.577Z,15.70
2018-09-04T03:47:08.136Z,15.70
2018-09-04T03:49:38.039Z,15.80
2018-09-04T03:52:07.477Z,15.70
2018-09-04T03:54:36.810Z,15.70
2018-09-04T03:57:06.341Z,15.70
2018-09-04T03:59:35.724Z,15.70
2018-09-04T04:02:05.108Z,15.80
2018-09-04T04:04:34.581Z,15.70
2018-09-04T04:07:03.924Z,15.70
2018-09-04T04:09:33.304Z,15.70
2018-09-04T04:12:02.744Z,15.70
2018-09-04T04:14:32.750Z,15.70
2018-09-04T04:17:02.259Z,15.70
2018-09-04T04:19:31.688Z,15.70
2018-09-04T04:22:01.079Z,15.60
2018-09-04T04:24:30.423Z,15.60
2018-09-04T04:26:59.824Z,15.60
2018-09-04T04:29:54.893Z,15.60
2018-09-04T04:32:25.000Z,15.60
2018-09-04T04:34:54.352Z,15.50
2018-09-04T04:37:23.850Z,15.50
2018-09-04T04:39:53.356Z,15.50
2018-09-04T04:42:22.753Z,15.50
2018-09-04T04:44:52.142Z,15.60
2018-09-04T04:47:32.153Z,15.60
2018-09-04T04:50:01.536Z,15.50
2018-09-04T04:52:30.920Z,15.50
2018-09-04T04:55:00.265Z,15.50
2018-09-04T04:57:29.652Z,15.50
2018-09-04T04:59:59.234Z,15.50
2018-09-04T05:02:28.606Z,15.50
2018-09-04T05:04:57.966Z,15.50
2018-09-04T05:07:27.499Z,15.40
2018-09-04T05:09:56.901Z,15.40
2018-09-04T05:12:26.304Z,15.40
2018-09-04T05:14:55.769Z,15.40
2018-09-04T05:17:34.429Z,15.50
2018-09-04T05:20:03.806Z,15.50
2018-09-04T05:22:33.395Z,15.50
2018-09-04T05:25:02.773Z,15.50
2018-09-04T05:27:34.349Z,15.50
2018-09-04T05:30:03.693Z,15.60
2018-09-04T05:32:39.039Z,15.60
2018-09-04T05:35:10.376Z,15.70
2018-09-04T05:37:41.744Z,15.80
2018-09-04T05:40:11.621Z,15.80
2018-09-04T05:42:45.561Z,15.80
2018-09-04T05:45:15.340Z,15.90
2018-09-04T05:47:49.586Z,16.00
2018-09-04T05:50:19.030Z,16.10
2018-09-04T05:55:17.576Z,16.30
2018-09-04T05:58:51.987Z,16.40
2018-09-04T06:01:21.442Z,16.40
2018-09-04T06:03:50.861Z,16.50
2018-09-04T06:06:20.356Z,16.70
2018-09-04T06:09:03.058Z,16.80
2018-09-04T06:11:32.498Z,16.90
2018-09-04T06:14:01.904Z,17.00
2018-09-04T06:16:31.389Z,16.90
2018-09-04T06:19:05.871Z,17.00
2018-09-04T06:21:35.393Z,17.00
2018-09-04T06:24:04.890Z,17.10
2018-09-04T06:26:34.426Z,17.10
2018-09-04T06:29:03.929Z,17.20
2018-09-04T06:31:33.420Z,17.10
2018-09-04T06:34:02.839Z,17.10
2018-09-04T06:36:32.268Z,17.00
2018-09-04T06:39:03.898Z,16.90
2018-09-04T06:41:33.417Z,16.90
2018-09-04T06:44:02.841Z,16.90
2018-09-04T06:46:32.416Z,16.90
2018-09-04T06:49:10.487Z,16.90
2018-09-04T06:51:39.879Z,17.00
2018-09-04T06:54:09.360Z,17.00
2018-09-04T06:56:38.853Z,17.10
2018-09-04T06:59:10.550Z,17.00
2018-09-04T07:01:39.952Z,17.00
2018-09-04T07:04:09.349Z,17.10
2018-09-04T07:06:38.814Z,17.30
2018-09-04T07:09:16.004Z,17.30
2018-09-04T07:11:45.689Z,17.30
2018-09-04T07:14:15.077Z,17.20
2018-09-04T07:16:44.510Z,17.30
2018-09-04T07:19:35.046Z,17.20
2018-09-04T07:22:04.482Z,17.30
2018-09-04T07:24:33.916Z,17.30
2018-09-04T07:27:03.401Z,17.30
2018-09-04T07:29:32.805Z,17.30
2018-09-04T07:32:02.197Z,17.40
2018-09-04T07:34:31.809Z,17.60
2018-09-04T07:37:01.217Z,17.70
2018-09-04T07:39:35.847Z,17.80
2018-09-04T07:42:05.238Z,18.00
2018-09-04T07:44:34.594Z,18.30
2018-09-04T07:47:03.917Z,18.50
2018-09-04T07:49:33.334Z,18.50
2018-09-04T07:52:02.673Z,18.80
2018-09-04T07:54:32.091Z,19.10
2018-09-04T07:57:01.496Z,19.20
2018-09-04T07:59:48.288Z,18.90
2018-09-04T08:02:17.685Z,19.00
2018-09-04T08:04:47.026Z,18.80
2018-09-04T08:07:17.409Z,18.70
2018-09-04T08:09:46.786Z,18.80
2018-09-04T08:12:15.968Z,18.80
2018-09-04T08:14:45.880Z,18.80
2018-09-04T08:17:15.059Z,18.70
2018-09-04T08:19:44.417Z,18.70
2018-09-04T08:22:13.512Z,18.80
2018-09-04T08:24:42.620Z,18.80
2018-09-04T08:27:12.346Z,19.00
2018-09-04T08:29:41.470Z,19.00
2018-09-04T08:32:10.630Z,19.00
2018-09-04T08:34:39.992Z,19.20
2018-09-04T08:37:09.400Z,19.40
2018-09-04T08:39:38.834Z,19.60
2018-09-04T08:42:08.281Z,19.70
2018-09-04T08:44:37.614Z,19.90
2018-09-04T08:47:07.177Z,19.80
2018-09-04T08:49:36.512Z,19.60
2018-09-04T08:52:05.801Z,19.70
2018-09-04T08:54:35.091Z,19.70
2018-09-04T08:57:04.218Z,19.90
2018-09-04T08:59:33.354Z,20.10
2018-09-04T09:02:02.607Z,20.20
2018-09-04T09:04:31.754Z,20.20
2018-09-04T09:07:01.010Z,20.40
2018-09-04T09:09:31.186Z,20.30
2018-09-04T09:12:00.373Z,20.40
2018-09-04T09:14:29.490Z,20.30
2018-09-04T09:16:58.557Z,20.10
2018-09-04T09:19:41.721Z,20.40
2018-09-04T09:22:10.872Z,20.30
2018-09-04T09:24:40.121Z,20.60
2018-09-04T09:27:09.553Z,20.80
2018-09-04T09:29:39.026Z,21.20
2018-09-04T09:32:08.491Z,21.40
2018-09-04T09:34:38.597Z,20.90
2018-09-04T09:37:07.995Z,21.20
2018-09-04T09:39:38.433Z,21.40
2018-09-04T09:42:12.049Z,21.70
2018-09-04T09:44:43.019Z,22.10
2018-09-04T09:47:14.335Z,22.30
2018-09-04T09:49:46.082Z,23.00
2018-09-04T09:52:16.789Z,23.10
2018-09-04T09:54:46.218Z,22.70
2018-09-04T09:57:15.525Z,23.30
2018-09-04T09:59:48.357Z,23.30
2018-09-04T10:02:20.556Z,23.10
2018-09-04T10:04:50.027Z,23.70
2018-09-04T10:09:49.956Z,24.20
2018-09-04T10:12:19.328Z,24.20
2018-09-04T10:14:48.742Z,23.30
2018-09-04T10:19:47.204Z,23.00
2018-09-04T10:22:16.618Z,23.90
2018-09-04T10:27:17.119Z,24.40
2018-09-04T10:29:46.537Z,25.20
2018-09-04T10:32:15.922Z,24.30
2018-09-04T10:34:45.413Z,24.80
2018-09-04T10:37:14.805Z,25.20
2018-09-04T10:39:49.433Z,25.30
2018-09-04T10:42:24.649Z,25.50
2018-09-04T10:44:54.002Z,24.80
2018-09-04T10:47:29.327Z,24.70
2018-09-04T10:49:58.706Z,25.30
2018-09-04T10:52:28.152Z,25.00
2018-09-04T10:54:57.576Z,24.70
2018-09-04T10:57:30.074Z,26.00
2018-09-04T10:59:59.456Z,25.60
2018-09-04T11:02:28.839Z,26.00
2018-09-04T11:07:59.581Z,27.90
2018-09-04T11:10:28.721Z,28.30
2018-09-04T11:12:57.796Z,28.60
2018-09-04T11:15:26.886Z,28.30
2018-09-04T11:17:59.316Z,27.60
2018-09-04T11:20:28.413Z,27.90
2018-09-04T11:22:57.539Z,29.10
2018-09-04T11:25:26.794Z,29.10
2018-09-04T11:30:28.215Z,28.70
2018-09-04T11:33:01.260Z,28.40
2018-09-04T11:35:30.878Z,27.80
2018-09-04T11:38:12.515Z,28.70
2018-09-04T11:40:47.066Z,29.10
2018-09-04T11:43:24.421Z,30.20
2018-09-04T11:45:53.569Z,29.60
2018-09-04T11:48:28.001Z,28.80
2018-09-04T11:50:57.278Z,28.20
2018-09-04T11:53:26.604Z,28.10
2018-09-04T11:55:56.002Z,28.90
2018-09-04T11:58:40.286Z,29.70
2018-09-04T12:01:11.359Z,29.40
2018-09-04T12:03:40.920Z,29.20
2018-09-04T12:06:10.333Z,29.10
2018-09-04T12:08:52.945Z,29.30
2018-09-04T12:11:22.245Z,29.60
2018-09-04T12:13:51.661Z,29.70
2018-09-04T12:16:21.910Z,29.70
2018-09-04T12:18:59.713Z,29.80
2018-09-04T12:21:29.225Z,30.50
2018-09-04T12:23:58.621Z,30.40
2018-09-04T12:26:28.560Z,30.10
2018-09-04T12:29:02.498Z,29.50
2018-09-04T12:31:31.660Z,29.40
2018-09-04T12:34:00.891Z,29.30
2018-09-04T12:36:30.117Z,28.90
2018-09-04T12:38:59.229Z,28.50
2018-09-04T12:41:28.333Z,28.60
2018-09-04T12:43:57.438Z,30.10
2018-09-04T12:46:30.433Z,30.10
2018-09-04T12:49:01.537Z,29.20
2018-09-04T12:51:30.636Z,30.30
2018-09-04T12:53:59.798Z,30.40
2018-09-04T12:56:28.913Z,31.40
2018-09-04T12:59:09.165Z,30.90
2018-09-04T13:01:38.333Z,30.70
2018-09-04T13:04:07.435Z,31.10
2018-09-04T13:06:36.601Z,31.60
2018-09-04T13:09:07.682Z,33.00
2018-09-04T13:11:36.813Z,33.30
2018-09-04T13:14:06.448Z,33.70
2018-09-04T13:16:35.714Z,34.40
2018-09-04T13:19:06.213Z,34.20
2018-09-04T13:21:35.716Z,32.10
2018-09-04T13:24:05.110Z,31.90
2018-09-04T13:26:34.553Z,31.30
2018-09-04T13:29:06.327Z,31.60
2018-09-04T13:31:35.787Z,32.60
2018-09-04T13:34:05.175Z,32.30
2018-09-04T13:36:34.605Z,32.20
2018-09-04T13:39:10.359Z,32.10
2018-09-04T13:41:39.698Z,32.20
2018-09-04T13:44:09.197Z,29.70
2018-09-04T13:49:09.650Z,29.90
2018-09-04T13:51:39.066Z,29.70
2018-09-04T13:54:08.937Z,29.20
2018-09-04T13:56:38.378Z,28.50
2018-09-04T13:59:09.881Z,28.40
2018-09-04T14:04:08.718Z,28.80
2018-09-04T14:06:38.092Z,29.50
2018-09-04T14:09:13.017Z,29.60
2018-09-04T14:11:42.324Z,28.80
2018-09-04T14:14:11.802Z,29.10
2018-09-04T14:19:11.358Z,28.60
2018-09-04T14:21:40.684Z,28.50
2018-09-04T14:24:10.079Z,28.20
2018-09-04T14:29:11.488Z,27.60
2018-09-04T14:31:42.054Z,27.40
2018-09-04T14:39:12.778Z,25.20
2018-09-04T14:41:42.226Z,24.40
2018-09-04T14:44:11.578Z,20.00
2018-09-04T14:46:41.000Z,19.70
2018-09-04T14:49:10.454Z,19.50
2018-09-04T14:51:39.736Z,19.50
2018-09-04T14:54:09.254Z,19.60
2018-09-04T14:56:39.381Z,19.70
2018-09-04T14:59:14.154Z,19.80
2018-09-04T15:01:43.549Z,19.90
2018-09-04T15:04:12.913Z,19.90
2018-09-04T15:06:42.396Z,20.00
2018-09-04T15:09:13.843Z,20.10
2018-09-04T15:11:43.382Z,20.10
2018-09-04T15:14:12.582Z,20.00
2018-09-04T15:16:41.721Z,20.10
2018-09-04T15:19:15.915Z,20.00
2018-09-04T15:21:45.025Z,20.00
2018-09-04T15:24:14.162Z,19.50
2018-09-04T15:26:43.301Z,19.30
2018-09-04T15:29:14.546Z,19.30
2018-09-04T15:31:43.690Z,19.30
2018-09-04T15:34:12.810Z,19.30
2018-09-04T15:36:41.949Z,19.30
2018-09-04T15:39:22.530Z,19.40
2018-09-04T15:41:51.588Z,19.30
2018-09-04T15:44:20.791Z,18.80
2018-09-04T15:46:49.947Z,18.70
2018-09-04T15:49:24.554Z,18.80
2018-09-04T15:51:53.629Z,18.80
2018-09-04T15:54:22.702Z,18.80
2018-09-04T15:56:51.864Z,18.50
2018-09-04T15:59:22.977Z,18.40
2018-09-04T16:01:52.111Z,18.50
2018-09-04T16:04:21.185Z,18.50
2018-09-04T16:06:50.355Z,18.50
2018-09-04T16:09:23.694Z,18.50
2018-09-04T16:11:53.039Z,18.60
2018-09-04T16:14:22.422Z,18.30
2018-09-04T16:16:51.886Z,18.30
2018-09-04T16:19:21.337Z,18.30
2018-09-04T16:21:50.702Z,18.00
2018-09-04T16:24:20.037Z,17.90
2018-09-04T16:26:49.408Z,18.10
2018-09-04T16:29:30.689Z,17.90
2018-09-04T16:32:00.085Z,17.90
2018-09-04T16:34:29.281Z,17.90
2018-09-04T16:36:58.264Z,18.00
2018-09-04T16:39:27.549Z,18.00
2018-09-04T16:41:56.557Z,18.00
2018-09-04T16:44:25.749Z,18.00
2018-09-04T16:46:54.839Z,17.90
2018-09-04T16:49:26.457Z,17.80
2018-09-04T16:54:26.854Z,17.70
2018-09-04T16:56:56.049Z,17.50
2018-09-04T16:59:26.161Z,17.40
2018-09-04T17:01:55.253Z,17.40
2018-09-04T17:04:24.376Z,17.30
2018-09-04T17:06:53.584Z,17.30
2018-09-04T17:09:22.973Z,17.20
2018-09-04T17:11:52.314Z,17.20
2018-09-04T17:14:21.674Z,17.10
2018-09-04T17:16:51.074Z,17.20
2018-09-04T17:19:22.538Z,17.20
2018-09-04T17:21:51.942Z,17.30
2018-09-04T17:24:21.280Z,17.10
2018-09-04T17:26:50.573Z,17.00
2018-09-04T17:29:23.655Z,16.90
2018-09-04T17:31:53.090Z,16.90
2018-09-04T17:34:22.425Z,17.00
2018-09-04T17:36:51.746Z,17.10
2018-09-04T17:39:22.151Z,17.10
2018-09-04T17:41:51.513Z,17.00
2018-09-04T17:44:20.850Z,17.00
2018-09-04T17:46:50.241Z,16.80
2018-09-04T17:49:19.571Z,16.80
2018-09-04T17:51:48.971Z,16.90
2018-09-04T17:54:18.388Z,16.70
2018-09-04T17:56:47.721Z,16.70
2018-09-04T17:59:19.096Z,16.70
2018-09-04T18:01:48.447Z,16.70
2018-09-04T18:04:17.854Z,16.60
2018-09-04T18:06:47.310Z,16.60
2018-09-04T18:09:29.393Z,16.50
2018-09-04T18:11:58.851Z,16.50
2018-09-04T18:14:28.214Z,16.50
2018-09-04T18:16:57.626Z,16.50
2018-09-04T18:19:32.192Z,16.50
2018-09-04T18:22:01.654Z,16.50
2018-09-04T18:24:30.976Z,16.50
2018-09-04T18:27:00.354Z,16.40
2018-09-04T18:29:29.830Z,16.40
2018-09-04T18:31:59.147Z,16.40
2018-09-04T18:34:28.497Z,16.40
2018-09-04T18:36:57.843Z,16.40
2018-09-04T18:39:32.657Z,16.40
2018-09-04T18:42:01.760Z,16.40
2018-09-04T18:44:30.941Z,16.40
2018-09-04T18:47:00.085Z,16.30
2018-09-04T18:51:59.005Z,16.10
2018-09-04T18:54:28.089Z,15.90
2018-09-04T18:56:57.215Z,16.30
2018-09-04T18:59:31.691Z,16.20
2018-09-04T19:02:00.745Z,16.20
2018-09-04T19:04:29.841Z,16.20
2018-09-04T19:06:58.927Z,16.20
2018-09-04T19:09:37.401Z,16.10
2018-09-04T19:12:06.542Z,16.10
2018-09-04T19:14:35.649Z,16.00
2018-09-04T19:17:04.781Z,16.00
2018-09-04T19:19:34.584Z,16.10
2018-09-04T19:22:03.718Z,16.00
2018-09-04T19:24:33.001Z,16.00
2018-09-04T19:29:31.377Z,15.90
2018-09-04T19:32:00.733Z,15.90
2018-09-04T19:34:30.077Z,15.90
2018-09-04T19:36:59.457Z,15.90
2018-09-04T19:39:28.789Z,15.90
2018-09-04T19:41:58.174Z,15.90
2018-09-04T19:44:27.523Z,15.80
2018-09-04T19:46:56.884Z,15.80
2018-09-04T19:49:39.365Z,15.80
2018-09-04T19:54:37.997Z,15.60
2018-09-04T19:57:07.326Z,15.70
2018-09-04T19:59:36.774Z,15.60
2018-09-04T20:02:06.210Z,15.60
2018-09-04T20:04:35.605Z,15.60
2018-09-04T20:07:05.204Z,15.50
2018-09-04T20:09:34.558Z,15.50
2018-09-04T20:12:03.945Z,15.50
2018-09-04T20:14:33.286Z,15.50
2018-09-04T20:17:02.721Z,15.50
2018-09-04T20:19:32.126Z,15.40
2018-09-04T20:22:01.510Z,15.40
2018-09-04T20:24:30.927Z,15.40
2018-09-04T20:27:00.246Z,15.30
2018-09-04T20:29:30.633Z,15.30
2018-09-04T20:31:59.921Z,15.20
2018-09-04T20:34:29.297Z,15.20
2018-09-04T20:36:58.742Z,15.20
2018-09-04T20:39:30.214Z,15.20
2018-09-04T20:41:59.573Z,15.20
2018-09-04T20:44:28.859Z,15.20
2018-09-04T20:47:00.270Z,15.10
2018-09-04T20:49:29.534Z,15.10
2018-09-04T20:51:58.612Z,15.10
2018-09-04T20:54:27.814Z,15.20
2018-09-04T20:57:41.049Z,15.00
2018-09-04T21:00:27.337Z,15.00
2018-09-04T21:03:13.614Z,15.00
2018-09-04T21:05:59.901Z,15.00
2018-09-04T21:08:54.135Z,15.00
2018-09-04T21:11:23.264Z,14.90
2018-09-04T21:13:52.332Z,14.70
2018-09-04T21:16:21.420Z,14.90
2018-09-04T21:18:50.656Z,14.90
2018-09-04T21:21:19.729Z,14.70
2018-09-04T21:23:48.857Z,14.80
2018-09-04T21:26:17.933Z,14.90
2018-09-04T21:28:48.166Z,14.80
2018-09-04T21:31:17.348Z,14.70
2018-09-04T21:33:46.409Z,14.70
2018-09-04T21:36:15.485Z,14.80
2018-09-04T21:38:44.705Z,14.80
2018-09-04T21:41:13.920Z,14.70
2018-09-04T21:43:43.017Z,14.60
2018-09-04T21:46:12.127Z,14.70
2018-09-04T21:48:48.757Z,14.70
2018-09-04T21:51:17.877Z,14.60
2018-09-04T21:53:46.949Z,14.20
2018-09-04T21:59:01.666Z,14.30
2018-09-04T22:01:30.757Z,14.30
2018-09-04T22:03:59.846Z,14.30
2018-09-04T22:09:04.737Z,14.20
2018-09-04T22:11:33.945Z,14.20
2018-09-04T22:14:03.429Z,14.30
2018-09-04T22:16:32.525Z,14.20
2018-09-04T22:21:34.537Z,14.10
2018-09-04T22:24:03.645Z,14.10
2018-09-04T22:26:32.788Z,14.10
2018-09-04T22:29:09.629Z,14.10
2018-09-04T22:31:38.713Z,14.10
2018-09-04T22:34:07.843Z,14.20
2018-09-04T22:36:36.970Z,14.20
2018-09-04T22:39:11.999Z,14.20
2018-09-04T22:41:42.015Z,14.10
2018-09-04T22:44:11.462Z,14.10
2018-09-04T22:46:40.968Z,14.10
2018-09-04T22:49:34.246Z,14.10
2018-09-04T22:52:03.582Z,14.00
2018-09-04T22:54:32.873Z,13.80
2018-09-04T22:57:02.296Z,13.80
2018-09-04T22:59:31.585Z,13.80
2018-09-04T23:02:00.861Z,13.90
2018-09-04T23:04:30.237Z,13.80
2018-09-04T23:06:59.666Z,13.80
2018-09-04T23:09:28.982Z,13.80
2018-09-04T23:11:58.373Z,13.80
2018-09-04T23:14:27.766Z,13.70
2018-09-04T23:16:57.088Z,13.70
2018-09-04T23:19:31.886Z,13.70
2018-09-04T23:22:01.289Z,13.70
2018-09-04T23:26:59.837Z,13.70
2018-09-04T23:29:54.585Z,13.50
2018-09-04T23:32:23.929Z,13.50
2018-09-04T23:34:53.193Z,13.50
2018-09-04T23:37:27.854Z,13.50
2018-09-04T23:39:57.265Z,13.50
2018-09-04T23:42:30.638Z,13.50
2018-09-04T23:45:00.437Z,13.50
2018-09-04T23:47:37.465Z,13.50
2018-09-04T23:50:06.861Z,13.40
2018-09-04T23:52:36.277Z,13.40
2018-09-04T23:55:05.713Z,13.40
2018-09-04T23:57:42.309Z,13.40
